createdAt,value
2023-04-08T00:00:20.046Z,14.85
2023-04-08T00:02:47.923Z,13.88
2023-04-08T00:05:16.229Z,14.77
2023-04-08T00:07:44.318Z,14.43
2023-04-08T00:10:12.342Z,13.85
2023-04-08T00:12:40.106Z,14.57
2023-04-08T00:15:08.201Z,14.70
2023-04-08T00:17:36.513Z,15.23
2023-04-08T00:20:05.946Z,14.68
2023-04-08T00:22:33.820Z,14.90
2023-04-08T00:25:03.092Z,14.50
2023-04-08T00:27:30.899Z,14.20
2023-04-08T00:30:00.315Z,14.43
2023-04-08T00:32:29.406Z,13.70
2023-04-08T00:34:57.355Z,13.65
2023-04-08T00:37:25.271Z,14.35
2023-04-08T00:39:54.361Z,14.80
2023-04-08T00:42:22.304Z,14.13
2023-04-08T00:44:50.170Z,14.43
2023-04-08T00:47:21.071Z,13.68
2023-04-08T00:49:49.680Z,14.30
2023-04-08T00:52:17.488Z,13.88
2023-04-08T00:54:45.637Z,13.82
2023-04-08T00:57:13.710Z,13.88
2023-04-08T00:59:42.001Z,13.38
2023-04-08T01:02:40.146Z,14.18
2023-04-08T01:05:38.818Z,15.13
2023-04-08T01:08:11.110Z,13.40
2023-04-08T01:10:45.864Z,13.15
2023-04-08T01:13:17.948Z,13.80
2023-04-08T01:15:46.674Z,13.90
2023-04-08T01:18:17.506Z,14.25
2023-04-08T01:20:46.357Z,13.60
2023-04-08T01:23:36.030Z,13.15
2023-04-08T01:26:03.881Z,13.00
2023-04-08T01:28:33.796Z,14.48
2023-04-08T01:31:02.897Z,15.13
2023-04-08T01:33:32.154Z,14.68
2023-04-08T01:36:01.811Z,14.05
2023-04-08T01:38:32.055Z,13.10
2023-04-08T01:41:00.633Z,14.43
2023-04-08T01:43:32.487Z,12.43
2023-04-08T01:46:01.352Z,12.57
2023-04-08T01:48:30.563Z,13.32
2023-04-08T01:51:00.330Z,13.50
2023-04-08T01:53:28.244Z,13.95
2023-04-08T01:56:02.108Z,13.27
2023-04-08T01:58:34.303Z,13.73
2023-04-08T02:01:03.607Z,15.00
2023-04-08T02:03:32.840Z,14.35
2023-04-08T02:06:01.039Z,14.02
2023-04-08T02:08:28.851Z,13.50
2023-04-08T02:10:56.675Z,14.55
2023-04-08T02:13:25.402Z,12.98
2023-04-08T02:16:03.472Z,13.77
2023-04-08T02:18:34.811Z,13.57
2023-04-08T02:21:15.908Z,12.93
2023-04-08T02:23:49.527Z,13.50
2023-04-08T02:26:19.427Z,13.30
2023-04-08T02:28:50.454Z,11.88
2023-04-08T02:31:20.277Z,13.23
2023-04-08T02:33:50.578Z,13.43
2023-04-08T02:36:19.221Z,12.25
2023-04-08T02:38:50.801Z,12.45
2023-04-08T02:41:18.717Z,12.43
2023-04-08T02:43:48.164Z,13.23
2023-04-08T02:46:16.283Z,11.60
2023-04-08T02:48:44.258Z,13.63
2023-04-08T02:51:12.105Z,12.13
2023-04-08T02:53:39.948Z,12.68
2023-04-08T02:56:10.996Z,13.15
2023-04-08T02:58:39.016Z,12.80
2023-04-08T03:01:07.638Z,14.57
2023-04-08T03:03:36.016Z,13.15
2023-04-08T03:06:04.099Z,13.00
2023-04-08T03:08:32.873Z,13.07
2023-04-08T03:11:00.706Z,12.63
2023-04-08T03:13:29.879Z,12.68
2023-04-08T03:15:58.129Z,13.63
2023-04-08T03:18:26.141Z,12.07
2023-04-08T03:20:54.003Z,13.30
2023-04-08T03:23:21.852Z,12.38
2023-04-08T03:25:49.685Z,13.05
2023-04-08T03:28:17.434Z,12.90
2023-04-08T03:30:45.589Z,12.63
2023-04-08T03:33:13.547Z,12.20
2023-04-08T03:35:41.438Z,13.07
2023-04-08T03:38:09.416Z,12.40
2023-04-08T03:40:37.348Z,12.43
2023-04-08T03:43:06.828Z,12.82
2023-04-08T03:45:34.736Z,12.02
2023-04-08T03:48:02.634Z,11.93
2023-04-08T03:50:30.524Z,12.93
2023-04-08T03:52:58.517Z,13.13
2023-04-08T03:55:26.345Z,12.85
2023-04-08T03:57:54.115Z,12.70
2023-04-08T04:00:21.851Z,13.13
2023-04-08T04:02:49.816Z,12.05
2023-04-08T04:05:17.824Z,13.40
2023-04-08T04:07:45.865Z,13.27
2023-04-08T04:10:13.869Z,13.52
2023-04-08T04:12:41.709Z,12.40
2023-04-08T04:15:09.865Z,13.23
2023-04-08T04:17:37.770Z,13.75
2023-04-08T04:20:06.629Z,13.15
2023-04-08T04:22:34.385Z,12.23
2023-04-08T04:25:02.187Z,12.40
2023-04-08T04:27:30.017Z,12.88
2023-04-08T04:29:57.825Z,13.82
2023-04-08T04:32:25.856Z,13.27
2023-04-08T04:34:53.671Z,12.70
2023-04-08T04:37:22.056Z,12.98
2023-04-08T04:39:49.849Z,12.77
2023-04-08T04:42:17.727Z,11.32
2023-04-08T04:44:45.533Z,13.55
2023-04-08T04:47:13.309Z,13.40
2023-04-08T04:49:41.109Z,13.88
2023-04-08T04:52:08.930Z,13.93
2023-04-08T04:54:36.732Z,13.63
2023-04-08T04:57:04.682Z,14.30
2023-04-08T04:59:32.744Z,13.35
2023-04-08T05:02:00.610Z,13.52
2023-04-08T05:04:28.667Z,12.95
2023-04-08T05:06:59.146Z,12.75
2023-04-08T05:09:27.289Z,12.68
2023-04-08T05:11:55.218Z,13.57
2023-04-08T05:14:23.229Z,14.07
2023-04-08T05:16:51.220Z,13.88
2023-04-08T05:19:19.034Z,14.45
2023-04-08T05:21:46.815Z,13.88
2023-04-08T05:24:14.617Z,13.27
2023-04-08T05:26:42.435Z,13.02
2023-04-08T05:29:10.203Z,12.93
2023-04-08T05:31:38.011Z,12.38
2023-04-08T05:34:05.921Z,13.48
2023-04-08T05:36:33.710Z,13.18
2023-04-08T05:39:03.413Z,14.35
2023-04-08T05:41:31.448Z,14.82
2023-04-08T05:43:59.321Z,13.65
2023-04-08T05:46:27.700Z,13.85
2023-04-08T05:48:55.461Z,12.70
2023-04-08T05:51:23.250Z,13.77
2023-04-08T05:53:51.419Z,13.27
2023-04-08T05:56:19.185Z,14.48
2023-04-08T05:58:47.352Z,14.43
2023-04-08T06:01:15.136Z,13.82
2023-04-08T06:03:43.020Z,13.73
2023-04-08T06:06:14.452Z,14.63
2023-04-08T06:08:42.347Z,13.75
2023-04-08T06:11:10.365Z,13.82
2023-04-08T06:13:38.582Z,14.23
2023-04-08T06:16:14.097Z,12.80
2023-04-08T06:18:42.376Z,14.93
2023-04-08T06:21:10.844Z,16.02
2023-04-08T06:23:38.613Z,14.30
2023-04-08T06:26:06.597Z,15.35
2023-04-08T06:28:34.460Z,15.27
2023-04-08T06:31:02.281Z,14.80
2023-04-08T06:33:30.063Z,15.57
2023-04-08T06:36:08.302Z,15.27
2023-04-08T06:38:36.695Z,15.55
2023-04-08T06:41:08.403Z,15.18
2023-04-08T06:43:38.056Z,15.25
2023-04-08T06:46:06.599Z,16.10
2023-04-08T06:48:34.517Z,15.65
2023-04-08T06:51:02.456Z,15.65
2023-04-08T06:53:31.387Z,14.20
2023-04-08T06:55:59.314Z,15.25
2023-04-08T06:58:27.526Z,14.85
2023-04-08T07:00:58.076Z,13.25
2023-04-08T07:03:26.798Z,14.20
2023-04-08T07:05:54.774Z,13.32
2023-04-08T07:08:22.531Z,14.15
2023-04-08T07:10:52.779Z,14.98
2023-04-08T07:13:20.701Z,14.75
2023-04-08T07:15:48.528Z,14.02
2023-04-08T07:18:16.343Z,13.50
2023-04-08T07:20:44.808Z,13.80
2023-04-08T07:23:12.773Z,15.10
2023-04-08T07:25:40.610Z,13.15
2023-04-08T07:28:08.427Z,12.82
2023-04-08T07:30:36.348Z,15.07
2023-04-08T07:33:04.912Z,13.75
2023-04-08T07:35:34.608Z,14.27
2023-04-08T07:38:02.522Z,13.77
2023-04-08T07:40:30.635Z,13.70
2023-04-08T07:42:58.487Z,13.35
2023-04-08T07:45:26.366Z,13.52
2023-04-08T07:47:54.205Z,13.85
2023-04-08T07:50:22.749Z,13.18
2023-04-08T07:52:50.792Z,12.65
2023-04-08T07:55:18.762Z,12.88
2023-04-08T07:57:47.128Z,12.90
2023-04-08T08:00:21.664Z,13.82
2023-04-08T08:02:49.947Z,13.80
2023-04-08T08:05:18.322Z,13.52
2023-04-08T08:07:46.912Z,13.13
2023-04-08T08:10:17.487Z,13.07
2023-04-08T08:12:47.956Z,13.20
2023-04-08T08:15:19.677Z,14.23
2023-04-08T08:17:49.095Z,14.13
2023-04-08T08:20:18.159Z,12.95
2023-04-08T08:22:56.738Z,13.85
2023-04-08T08:25:27.018Z,13.88
2023-04-08T08:27:56.130Z,13.20
2023-04-08T08:30:26.818Z,14.02
2023-04-08T08:32:59.500Z,12.80
2023-04-08T08:35:27.668Z,13.40
2023-04-08T08:37:55.466Z,14.90
2023-04-08T08:40:23.372Z,14.52
2023-04-08T08:42:52.917Z,14.05
2023-04-08T08:45:21.436Z,15.13
2023-04-08T08:47:51.223Z,14.57
2023-04-08T08:50:19.980Z,13.40
2023-04-08T08:52:52.095Z,14.63
2023-04-08T08:55:35.066Z,14.75
2023-04-08T08:58:08.687Z,13.80
2023-04-08T09:00:42.572Z,14.55
2023-04-08T09:03:29.523Z,14.48
2023-04-08T09:06:00.148Z,15.13
2023-04-08T09:08:29.125Z,13.95
2023-04-08T09:11:11.475Z,13.43
2023-04-08T09:13:39.811Z,13.75
2023-04-08T09:16:10.439Z,14.65
2023-04-08T09:18:39.878Z,14.48
2023-04-08T09:21:08.513Z,14.38
2023-04-08T09:23:46.678Z,14.07
2023-04-08T09:26:16.949Z,13.48
2023-04-08T09:28:57.854Z,13.40
2023-04-08T09:31:31.070Z,13.15
2023-04-08T09:34:09.665Z,14.10
2023-04-08T09:36:37.888Z,13.90
2023-04-08T09:39:06.564Z,13.27
2023-04-08T09:41:36.255Z,13.70
2023-04-08T09:44:06.158Z,13.68
2023-04-08T09:46:56.697Z,13.07
2023-04-08T09:50:00.289Z,13.38
2023-04-08T09:52:34.546Z,13.07
2023-04-08T09:57:41.890Z,13.07
2023-04-08T10:00:14.883Z,12.27
2023-04-08T10:03:19.860Z,12.88
2023-04-08T10:08:16.612Z,12.57
2023-04-08T10:10:46.243Z,12.38
2023-04-08T10:13:16.279Z,13.25
2023-04-08T10:15:45.931Z,13.70
2023-04-08T10:18:20.839Z,12.75
2023-04-08T10:20:49.575Z,12.23
2023-04-08T10:23:19.255Z,12.23
2023-04-08T10:25:48.748Z,12.35
2023-04-08T10:28:18.179Z,12.57
2023-04-08T10:30:48.280Z,11.52
2023-04-08T10:33:31.609Z,11.52
2023-04-08T10:36:11.801Z,11.13
2023-04-08T10:38:41.443Z,13.25
2023-04-08T10:41:14.402Z,12.88
2023-04-08T10:43:42.362Z,11.90
2023-04-08T10:46:12.991Z,11.35
2023-04-08T10:48:40.977Z,12.20
2023-04-08T10:51:08.740Z,12.20
2023-04-08T10:53:39.328Z,11.27
2023-04-08T10:56:13.259Z,11.10
2023-04-08T10:58:56.486Z,10.90
2023-04-08T11:01:24.944Z,10.95
2023-04-08T11:03:53.271Z,11.23
2023-04-08T11:06:22.245Z,10.75
2023-04-08T11:08:50.202Z,10.88
2023-04-08T11:11:19.945Z,10.82
2023-04-08T11:13:53.430Z,10.82
2023-04-08T11:16:26.104Z,11.10
2023-04-08T11:18:54.332Z,12.02
2023-04-08T11:21:24.713Z,10.15
2023-04-08T11:23:54.044Z,9.93
2023-04-08T11:26:25.757Z,10.40
2023-04-08T11:28:56.342Z,10.65
2023-04-08T11:31:25.140Z,10.60
2023-04-08T11:33:55.602Z,10.07
2023-04-08T11:36:23.839Z,9.52
2023-04-08T11:38:54.362Z,10.02
2023-04-08T11:41:23.368Z,12.95
2023-04-08T11:43:56.747Z,11.15
2023-04-08T11:46:24.988Z,10.93
2023-04-08T11:49:00.647Z,14.82
2023-04-08T11:51:29.202Z,13.00
2023-04-08T11:53:57.659Z,11.30
2023-04-08T11:56:26.082Z,10.38
2023-04-08T11:58:53.986Z,10.05
2023-04-08T12:01:22.563Z,9.73
2023-04-08T12:04:02.549Z,9.48
2023-04-08T12:06:32.120Z,8.82
2023-04-08T12:09:00.110Z,8.05
2023-04-08T12:11:28.012Z,9.15
2023-04-08T12:13:57.014Z,9.38
2023-04-08T12:16:24.824Z,7.70
2023-04-08T12:18:53.046Z,9.98
2023-04-08T12:21:21.309Z,7.75
2023-04-08T12:23:49.237Z,8.85
2023-04-08T12:26:17.946Z,7.97
2023-04-08T12:28:46.450Z,8.77
2023-04-08T12:31:14.332Z,9.32
2023-04-08T12:33:42.310Z,8.88
2023-04-08T12:36:12.962Z,8.70
2023-04-08T12:38:41.546Z,8.98
2023-04-08T12:41:09.383Z,8.80
2023-04-08T12:43:37.237Z,8.43
2023-04-08T12:46:05.082Z,7.75
2023-04-08T12:48:33.367Z,9.57
2023-04-08T12:51:01.381Z,8.32
2023-04-08T12:53:29.305Z,8.13
2023-04-08T12:55:57.720Z,8.43
2023-04-08T12:58:25.987Z,8.57
2023-04-08T13:00:54.074Z,9.00
2023-04-08T13:03:22.221Z,8.10
2023-04-08T13:05:50.340Z,8.13
2023-04-08T13:08:18.208Z,8.43
2023-04-08T13:10:46.145Z,8.15
2023-04-08T13:13:14.480Z,7.30
2023-04-08T13:15:42.296Z,8.20
2023-04-08T13:18:10.138Z,8.30
2023-04-08T13:20:38.087Z,7.90
2023-04-08T13:23:06.064Z,7.70
2023-04-08T13:25:34.062Z,7.25
2023-04-08T13:28:02.132Z,8.25
2023-04-08T13:30:29.982Z,7.70
2023-04-08T13:32:57.900Z,9.45
2023-04-08T13:35:25.667Z,8.30
2023-04-08T13:37:53.446Z,8.10
2023-04-08T13:40:21.575Z,7.32
2023-04-08T13:42:49.354Z,7.10
2023-04-08T13:45:17.312Z,7.80
2023-04-08T13:47:45.278Z,7.32
2023-04-08T13:50:13.199Z,7.75
2023-04-08T13:52:41.317Z,7.50
2023-04-08T13:55:09.301Z,7.63
2023-04-08T13:57:37.302Z,7.57
2023-04-08T14:00:05.653Z,7.63
2023-04-08T14:02:39.061Z,7.22
2023-04-08T14:05:07.762Z,7.43
2023-04-08T14:07:35.869Z,7.15
2023-04-08T14:10:04.706Z,7.47
2023-04-08T14:12:33.309Z,7.63
2023-04-08T14:15:02.929Z,7.28
2023-04-08T14:17:31.055Z,7.13
2023-04-08T14:20:01.319Z,6.90
2023-04-08T14:22:29.193Z,7.57
2023-04-08T14:24:56.992Z,7.55
2023-04-08T14:27:24.910Z,7.03
2023-04-08T14:29:52.721Z,8.05
2023-04-08T14:32:21.099Z,6.78
2023-04-08T14:34:49.221Z,6.65
2023-04-08T14:37:18.048Z,7.07
2023-04-08T14:39:48.889Z,7.38
2023-04-08T14:42:18.535Z,7.88
2023-04-08T14:44:46.440Z,6.97
2023-04-08T14:47:14.283Z,6.97
2023-04-08T14:49:42.155Z,6.53
2023-04-08T14:52:09.976Z,7.05
2023-04-08T14:54:37.845Z,7.13
2023-04-08T14:57:06.050Z,6.68
2023-04-08T14:59:33.936Z,6.90
2023-04-08T15:02:02.004Z,6.35
2023-04-08T15:04:30.223Z,6.43
2023-04-08T15:06:58.304Z,6.68
2023-04-08T15:09:26.574Z,7.28
2023-04-08T15:11:55.077Z,7.35
2023-04-08T15:14:23.115Z,6.53
2023-04-08T15:16:51.177Z,5.82
2023-04-08T15:19:20.349Z,4.30
2023-04-08T15:21:48.280Z,4.07
2023-04-08T15:24:16.146Z,4.07
2023-04-08T15:26:44.067Z,4.25
2023-04-08T15:29:11.996Z,3.55
2023-04-08T15:31:40.097Z,3.65
2023-04-08T15:34:08.089Z,3.28
2023-04-08T15:36:37.550Z,3.65
2023-04-08T15:39:06.279Z,3.35
2023-04-08T15:41:34.153Z,3.22
2023-04-08T15:44:02.151Z,3.45
2023-04-08T15:46:30.131Z,3.20
2023-04-08T15:48:59.117Z,4.18
2023-04-08T15:51:29.028Z,3.97
2023-04-08T15:53:58.239Z,4.00
2023-04-08T15:56:30.154Z,3.65
2023-04-08T15:58:59.191Z,3.85
2023-04-08T16:01:29.429Z,5.82
2023-04-08T16:04:05.320Z,4.43
2023-04-08T16:06:36.306Z,4.30
2023-04-08T16:09:07.317Z,5.07
2023-04-08T16:11:39.153Z,4.93
2023-04-08T16:14:13.227Z,5.65
2023-04-08T16:16:43.287Z,5.47
2023-04-08T16:19:11.600Z,5.68
2023-04-08T16:21:39.657Z,5.82
2023-04-08T16:24:07.647Z,6.00
2023-04-08T16:26:35.555Z,6.10
2023-04-08T16:29:03.451Z,5.05
2023-04-08T16:33:59.258Z,6.82
2023-04-08T16:36:27.484Z,6.28
2023-04-08T16:38:55.521Z,5.80
2023-04-08T16:41:23.918Z,6.78
2023-04-08T16:43:53.046Z,7.32
2023-04-08T16:46:21.439Z,8.00
2023-04-08T16:48:50.298Z,8.55
2023-04-08T16:51:20.164Z,7.85
2023-04-08T16:53:47.997Z,6.32
2023-04-08T16:56:16.574Z,6.68
2023-04-08T16:58:44.690Z,6.47
2023-04-08T17:01:14.475Z,7.55
2023-04-08T17:03:46.848Z,6.75
2023-04-08T17:06:14.960Z,7.30
2023-04-08T17:08:43.613Z,7.13
2023-04-08T17:11:14.314Z,7.20
2023-04-08T17:13:43.545Z,6.00
2023-04-08T17:16:14.568Z,6.72
2023-04-08T17:18:43.371Z,6.45
2023-04-08T17:21:12.769Z,6.95
2023-04-08T17:23:40.789Z,7.05
2023-04-08T17:26:09.895Z,6.47
2023-04-08T17:28:38.217Z,6.57
2023-04-08T17:31:06.057Z,6.80
2023-04-08T17:33:34.659Z,7.28
2023-04-08T17:36:02.546Z,9.27
2023-04-08T17:38:30.647Z,7.45
2023-04-08T17:40:58.625Z,7.75
2023-04-08T17:43:26.563Z,7.90
2023-04-08T17:45:54.510Z,7.35
2023-04-08T17:48:22.858Z,7.05
2023-04-08T17:50:50.666Z,5.93
2023-04-08T17:53:18.672Z,6.93
2023-04-08T17:55:46.537Z,7.10
2023-04-08T17:58:14.660Z,7.13
2023-04-08T18:00:42.481Z,7.20
2023-04-08T18:03:10.917Z,6.60
2023-04-08T18:05:39.132Z,6.63
2023-04-08T18:08:06.997Z,7.20
2023-04-08T18:10:34.952Z,7.70
2023-04-08T18:13:10.837Z,7.90
2023-04-08T18:15:39.926Z,7.78
2023-04-08T18:18:07.826Z,6.93
2023-04-08T18:20:37.342Z,7.28
2023-04-08T18:23:05.609Z,8.13
2023-04-08T18:25:34.661Z,8.38
2023-04-08T18:28:03.016Z,8.93
2023-04-08T18:30:31.009Z,8.65
2023-04-08T18:32:59.040Z,8.25
2023-04-08T18:35:26.970Z,9.43
2023-04-08T18:37:54.807Z,9.77
2023-04-08T18:40:23.024Z,9.20
2023-04-08T18:42:50.999Z,9.70
2023-04-08T18:45:18.977Z,9.90
2023-04-08T18:47:46.977Z,8.88
2023-04-08T18:50:14.977Z,9.23
2023-04-08T18:52:43.020Z,9.32
2023-04-08T18:55:10.857Z,9.32
2023-04-08T18:57:39.240Z,9.18
2023-04-08T19:00:08.077Z,9.20
2023-04-08T19:02:36.002Z,11.73
2023-04-08T19:05:04.339Z,11.05
2023-04-08T19:07:32.620Z,11.07
2023-04-08T19:10:00.546Z,9.90
2023-04-08T19:12:28.403Z,10.00
2023-04-08T19:14:56.160Z,10.50
2023-04-08T19:17:23.929Z,10.30
2023-04-08T19:19:51.960Z,10.82
2023-04-08T19:22:19.786Z,10.73
2023-04-08T19:24:47.717Z,10.43
2023-04-08T19:27:16.033Z,10.18
2023-04-08T19:29:43.768Z,10.90
2023-04-08T19:32:11.673Z,10.02
2023-04-08T19:34:39.733Z,10.07
2023-04-08T19:37:08.678Z,10.68
2023-04-08T19:39:36.408Z,11.25
2023-04-08T19:42:04.298Z,12.30
2023-04-08T19:44:32.133Z,11.52
2023-04-08T19:46:59.931Z,10.88
2023-04-08T19:49:27.998Z,11.40
2023-04-08T19:51:56.123Z,13.35
2023-04-08T19:54:24.052Z,12.48
2023-04-08T19:56:52.244Z,14.75
2023-04-08T19:59:24.326Z,14.90
2023-04-08T20:01:52.202Z,15.13
2023-04-08T20:04:20.035Z,14.35
2023-04-08T20:06:48.441Z,13.18
2023-04-08T20:09:16.901Z,12.82
2023-04-08T20:11:45.201Z,12.32
2023-04-08T20:14:13.031Z,12.32
2023-04-08T20:16:40.810Z,12.38
2023-04-08T20:19:08.613Z,13.55
2023-04-08T20:21:36.509Z,10.95
2023-04-08T20:24:04.950Z,10.70
2023-04-08T20:26:32.810Z,10.45
2023-04-08T20:29:00.700Z,12.25
2023-04-08T20:31:28.600Z,11.27
2023-04-08T20:33:56.615Z,10.40
2023-04-08T20:36:25.302Z,10.05
2023-04-08T20:38:53.513Z,10.35
2023-04-08T20:41:23.088Z,9.85
2023-04-08T20:43:52.691Z,9.35
2023-04-08T20:46:21.113Z,9.77
2023-04-08T20:48:48.848Z,9.88
2023-04-08T20:51:18.152Z,10.30
2023-04-08T20:53:46.406Z,9.48
2023-04-08T20:56:14.387Z,9.88
2023-04-08T20:58:42.313Z,9.00
2023-04-08T21:01:11.167Z,9.88
2023-04-08T21:03:39.129Z,10.55
2023-04-08T21:06:07.100Z,10.10
2023-04-08T21:08:35.040Z,9.30
2023-04-08T21:11:02.916Z,10.30
2023-04-08T21:13:33.816Z,10.05
2023-04-08T21:16:02.731Z,10.60
2023-04-08T21:18:32.072Z,10.05
2023-04-08T21:21:00.456Z,10.30
2023-04-08T21:23:28.479Z,9.18
2023-04-08T21:25:56.466Z,9.85
2023-04-08T21:28:25.646Z,10.10
2023-04-08T21:30:55.043Z,10.43
2023-04-08T21:33:23.258Z,9.07
2023-04-08T21:35:51.893Z,10.02
2023-04-08T21:38:19.944Z,10.52
2023-04-08T21:40:48.003Z,9.30
2023-04-08T21:43:16.013Z,9.82
2023-04-08T21:45:44.094Z,9.68
2023-04-08T21:48:12.602Z,9.43
2023-04-08T21:50:42.026Z,9.15
2023-04-08T21:53:10.016Z,9.07
2023-04-08T21:55:38.811Z,9.57
2023-04-08T21:58:07.909Z,8.98
2023-04-08T22:00:36.036Z,9.23
2023-04-08T22:03:04.252Z,10.10
2023-04-08T22:05:33.223Z,9.35
2023-04-08T22:08:01.311Z,9.52
2023-04-08T22:10:29.433Z,10.15
2023-04-08T22:12:57.435Z,10.60
2023-04-08T22:15:25.831Z,10.65
2023-04-08T22:17:53.658Z,9.85
2023-04-08T22:20:21.462Z,9.73
2023-04-08T22:22:50.511Z,10.85
2023-04-08T22:25:19.061Z,9.55
2023-04-08T22:27:46.889Z,10.13
2023-04-08T22:30:14.687Z,10.00
2023-04-08T22:32:42.471Z,10.00
2023-04-08T22:35:10.796Z,10.57
2023-04-08T22:37:38.644Z,10.82
2023-04-08T22:40:07.062Z,10.57
2023-04-08T22:42:34.760Z,10.20
2023-04-08T22:45:02.478Z,9.10
2023-04-08T22:47:30.435Z,10.25
2023-04-08T22:49:58.226Z,9.82
2023-04-08T22:52:26.034Z,10.13
2023-04-08T22:54:53.806Z,9.65
2023-04-08T22:57:21.614Z,9.27
2023-04-08T22:59:49.619Z,9.95
2023-04-08T23:02:17.490Z,9.52
2023-04-08T23:04:45.414Z,9.63
2023-04-08T23:07:13.308Z,10.55
2023-04-08T23:09:41.093Z,9.73
2023-04-08T23:12:08.928Z,10.20
2023-04-08T23:14:36.757Z,10.60
2023-04-08T23:17:05.623Z,9.88
2023-04-08T23:19:33.469Z,10.38
2023-04-08T23:22:01.201Z,10.43
2023-04-08T23:24:29.187Z,10.27
2023-04-08T23:26:57.099Z,10.85
2023-04-08T23:29:25.006Z,9.95
2023-04-08T23:31:52.882Z,9.60
2023-04-08T23:34:20.703Z,11.05
2023-04-08T23:36:48.494Z,11.60
2023-04-08T23:39:16.384Z,11.18
2023-04-08T23:41:44.221Z,11.85
2023-04-08T23:44:12.064Z,11.15
2023-04-08T23:46:39.849Z,11.00
2023-04-08T23:49:07.748Z,10.88
2023-04-08T23:51:36.426Z,11.70
2023-04-08T23:54:04.277Z,10.45
2023-04-08T23:56:32.201Z,11.50
2023-04-08T23:58:59.998Z,10.30
